createdAt,value
2018-05-31T00:00:11.478Z,99.99
2018-05-31T00:01:11.470Z,99.99
2018-05-31T00:02:11.459Z,99.99
2018-05-31T00:03:11.465Z,99.99
2018-05-31T00:04:11.437Z,99.99
2018-05-31T00:05:11.421Z,99.99
2018-05-31T00:06:11.419Z,99.99
2018-05-31T00:07:11.402Z,99.99
2018-05-31T00:08:11.410Z,99.99
2018-05-31T00:09:11.386Z,99.99
2018-05-31T00:10:11.390Z,99.99
2018-05-31T00:11:11.361Z,99.99
2018-05-31T00:12:11.362Z,99.99
2018-05-31T00:13:11.340Z,99.99
2018-05-31T00:14:11.352Z,99.99
2018-05-31T00:15:11.341Z,99.99
2018-05-31T00:16:11.312Z,99.99
2018-05-31T00:17:11.304Z,99.99
2018-05-31T00:18:11.289Z,99.99
2018-05-31T00:19:11.276Z,99.99
2018-05-31T00:20:11.268Z,99.99
2018-05-31T00:21:11.276Z,99.99
2018-05-31T00:22:11.246Z,99.99
2018-05-31T00:23:11.234Z,99.99
2018-05-31T00:24:11.229Z,99.99
2018-05-31T00:25:11.223Z,99.99
2018-05-31T00:26:11.226Z,99.99
2018-05-31T00:27:11.197Z,99.99
2018-05-31T00:28:11.185Z,99.99
2018-05-31T00:29:11.170Z,99.99
2018-05-31T00:30:11.164Z,99.99
2018-05-31T00:31:11.157Z,99.99
2018-05-31T00:32:11.171Z,99.99
2018-05-31T00:33:11.131Z,99.99
2018-05-31T00:34:11.124Z,99.99
2018-05-31T00:35:11.111Z,99.99
2018-05-31T00:36:11.100Z,99.99
2018-05-31T00:37:11.091Z,99.99
2018-05-31T00:38:11.094Z,99.99
2018-05-31T00:39:11.067Z,99.99
2018-05-31T00:40:11.062Z,99.99
2018-05-31T00:41:11.047Z,99.99
2018-05-31T00:42:11.060Z,99.99
2018-05-31T00:43:11.029Z,99.99
2018-05-31T00:44:11.039Z,99.99
2018-05-31T00:45:11.008Z,99.99
2018-05-31T00:46:10.997Z,99.99
2018-05-31T00:47:10.982Z,99.99
2018-05-31T00:48:10.988Z,99.99
2018-05-31T00:49:10.969Z,99.99
2018-05-31T00:50:10.956Z,99.99
2018-05-31T00:51:10.944Z,99.99
2018-05-31T00:52:10.944Z,99.99
2018-05-31T00:53:10.924Z,99.99
2018-05-31T00:54:10.928Z,99.99
2018-05-31T00:55:10.895Z,99.99
2018-05-31T00:56:10.886Z,99.99
2018-05-31T00:57:10.873Z,99.99
2018-05-31T00:58:10.867Z,99.99
2018-05-31T00:59:10.870Z,99.99
2018-05-31T01:00:10.845Z,99.99
2018-05-31T01:01:10.832Z,99.99
2018-05-31T01:02:10.824Z,99.99
2018-05-31T01:03:10.811Z,99.99
2018-05-31T01:04:10.817Z,99.99
2018-05-31T01:05:10.816Z,99.99
2018-05-31T01:06:10.785Z,99.99
2018-05-31T01:07:10.763Z,99.99
2018-05-31T01:08:10.766Z,99.99
2018-05-31T01:09:10.743Z,99.99
2018-05-31T01:10:10.759Z,99.99
2018-05-31T01:11:10.727Z,99.99
2018-05-31T01:12:10.715Z,99.99
2018-05-31T01:13:10.711Z,99.99
2018-05-31T01:14:10.696Z,99.99
2018-05-31T01:15:10.699Z,99.99
2018-05-31T01:16:10.674Z,99.99
2018-05-31T01:17:10.658Z,99.99
2018-05-31T01:18:10.658Z,99.99
2018-05-31T01:19:10.637Z,99.99
2018-05-31T01:20:10.639Z,99.99
2018-05-31T01:21:10.612Z,99.99
2018-05-31T01:22:10.607Z,99.99
2018-05-31T01:23:10.608Z,99.99
2018-05-31T01:24:10.590Z,99.99
2018-05-31T01:25:10.587Z,99.99
2018-05-31T01:26:10.571Z,99.99
2018-05-31T01:27:10.554Z,99.99
2018-05-31T01:28:10.543Z,99.99
2018-05-31T01:29:10.532Z,99.99
2018-05-31T01:30:10.549Z,99.99
2018-05-31T01:31:10.511Z,99.99
2018-05-31T01:32:10.499Z,99.99
2018-05-31T01:33:10.493Z,99.99
2018-05-31T01:34:10.485Z,99.99
2018-05-31T01:35:10.471Z,99.99
2018-05-31T01:36:10.472Z,99.99
2018-05-31T01:37:10.447Z,99.99
2018-05-31T01:38:10.434Z,99.99
2018-05-31T01:39:10.425Z,99.99
2018-05-31T01:40:10.422Z,99.99
2018-05-31T01:41:10.441Z,99.99
2018-05-31T01:42:10.396Z,99.99
2018-05-31T01:43:10.382Z,99.99
2018-05-31T01:44:10.372Z,99.99
2018-05-31T01:45:10.361Z,99.99
2018-05-31T01:46:10.348Z,99.99
2018-05-31T01:47:10.353Z,99.99
2018-05-31T01:48:10.335Z,99.99
2018-05-31T01:49:10.321Z,99.99
2018-05-31T01:50:10.309Z,99.99
2018-05-31T01:51:10.298Z,99.99
2018-05-31T01:52:10.306Z,99.99
2018-05-31T01:53:10.269Z,99.99
2018-05-31T01:54:10.270Z,99.99
2018-05-31T01:55:10.254Z,99.99
2018-05-31T01:56:10.236Z,99.99
2018-05-31T01:57:10.246Z,99.99
2018-05-31T01:58:10.221Z,99.99
2018-05-31T01:59:10.212Z,99.99
2018-05-31T02:00:10.199Z,99.99
2018-05-31T02:01:10.184Z,99.99
2018-05-31T02:02:10.200Z,99.99
2018-05-31T02:03:10.193Z,99.99
2018-05-31T02:04:10.157Z,99.99
2018-05-31T02:05:10.146Z,99.99
2018-05-31T02:06:10.138Z,99.99
2018-05-31T02:07:10.124Z,99.99
2018-05-31T02:08:10.109Z,99.99
2018-05-31T02:09:10.119Z,99.99
2018-05-31T02:10:10.092Z,99.99
2018-05-31T02:11:10.094Z,99.99
2018-05-31T02:12:10.073Z,99.99
2018-05-31T02:13:10.073Z,99.99
2018-05-31T02:14:10.065Z,99.99
2018-05-31T02:15:10.035Z,99.99
2018-05-31T02:16:10.027Z,99.99
2018-05-31T02:17:10.022Z,99.99
2018-05-31T02:18:10.042Z,99.99
2018-05-31T02:19:10.011Z,99.99
2018-05-31T02:20:09.982Z,99.99
2018-05-31T02:21:09.971Z,99.99
2018-05-31T02:22:09.971Z,99.99
2018-05-31T02:23:09.953Z,99.99
2018-05-31T02:24:09.953Z,99.99
2018-05-31T02:25:09.934Z,99.99
2018-05-31T02:26:09.934Z,99.99
2018-05-31T02:27:09.923Z,99.99
2018-05-31T02:28:09.899Z,99.99
2018-05-31T02:29:09.903Z,99.99
2018-05-31T02:30:09.899Z,99.99
2018-05-31T02:31:09.868Z,99.99
2018-05-31T02:32:09.866Z,99.99
2018-05-31T02:33:09.843Z,99.99
2018-05-31T02:34:09.865Z,99.99
2018-05-31T02:35:09.823Z,99.99
2018-05-31T02:36:09.812Z,99.99
2018-05-31T02:37:09.809Z,99.99
2018-05-31T02:38:09.792Z,99.99
2018-05-31T02:39:09.780Z,99.99
2018-05-31T02:40:09.778Z,99.99
2018-05-31T02:41:09.768Z,99.99
2018-05-31T02:42:09.742Z,99.99
2018-05-31T02:43:09.734Z,99.99
2018-05-31T02:44:09.718Z,99.99
2018-05-31T02:45:09.715Z,99.99
2018-05-31T02:46:09.718Z,99.99
2018-05-31T02:47:09.691Z,99.99
2018-05-31T02:48:09.685Z,99.99
2018-05-31T02:49:09.667Z,99.99
2018-05-31T02:50:09.658Z,99.99
2018-05-31T02:51:09.648Z,99.99
2018-05-31T02:52:09.645Z,99.99
2018-05-31T02:53:09.619Z,99.99
2018-05-31T02:54:09.607Z,99.99
2018-05-31T02:55:09.595Z,99.99
2018-05-31T02:56:09.585Z,99.99
2018-05-31T02:57:09.575Z,99.99
2018-05-31T02:58:09.580Z,99.99
2018-05-31T02:59:09.556Z,99.99
2018-05-31T03:00:09.541Z,99.99
2018-05-31T03:01:09.523Z,99.99
2018-05-31T03:02:09.537Z,99.99
2018-05-31T03:03:09.524Z,99.99
2018-05-31T03:04:09.486Z,99.99
2018-05-31T03:05:09.484Z,99.99
2018-05-31T03:06:09.480Z,99.99
2018-05-31T03:07:09.456Z,99.99
2018-05-31T03:08:09.442Z,99.99
2018-05-31T03:09:09.446Z,99.99
2018-05-31T03:10:09.430Z,99.99
2018-05-31T03:11:09.411Z,99.99
2018-05-31T03:12:09.420Z,99.99
2018-05-31T03:13:09.392Z,99.99
2018-05-31T03:14:09.380Z,99.99
2018-05-31T03:15:09.363Z,99.99
2018-05-31T03:16:09.360Z,99.99
2018-05-31T03:17:09.340Z,99.99
2018-05-31T03:18:09.357Z,99.99
2018-05-31T03:19:09.320Z,99.99
2018-05-31T03:20:09.312Z,99.99
2018-05-31T03:21:09.300Z,99.99
2018-05-31T03:22:09.290Z,99.99
2018-05-31T03:23:09.282Z,99.99
2018-05-31T03:24:09.295Z,99.99
2018-05-31T03:25:09.258Z,99.99
2018-05-31T03:26:09.246Z,99.99
2018-05-31T03:27:09.233Z,99.99
2018-05-31T03:28:09.223Z,99.99
2018-05-31T03:29:09.234Z,99.99
2018-05-31T03:30:09.209Z,99.99
2018-05-31T03:31:09.201Z,99.99
2018-05-31T03:32:09.176Z,99.99
2018-05-31T03:33:09.161Z,99.99
2018-05-31T03:34:09.156Z,99.99
2018-05-31T03:35:09.146Z,99.99
2018-05-31T03:36:09.150Z,99.99
2018-05-31T03:37:09.156Z,99.99
2018-05-31T03:38:09.111Z,99.99
2018-05-31T03:39:09.104Z,99.99
2018-05-31T03:40:09.088Z,99.99
2018-05-31T03:41:09.091Z,99.99
2018-05-31T03:42:09.074Z,99.99
2018-05-31T03:43:09.049Z,99.99
2018-05-31T03:44:09.037Z,99.99
2018-05-31T03:45:09.042Z,99.99
2018-05-31T03:46:09.036Z,99.99
2018-05-31T03:47:09.010Z,99.99
2018-05-31T03:48:09.002Z,99.99
2018-05-31T03:49:08.994Z,99.99
2018-05-31T03:50:08.989Z,99.99
2018-05-31T03:51:08.977Z,99.99
2018-05-31T03:52:08.966Z,99.99
2018-05-31T03:53:08.956Z,99.99
2018-05-31T03:54:08.932Z,99.99
2018-05-31T03:55:08.917Z,99.99
2018-05-31T03:56:08.905Z,99.99
2018-05-31T03:57:08.913Z,99.99
2018-05-31T03:58:08.881Z,99.99
2018-05-31T03:59:08.919Z,99.99
2018-05-31T04:00:08.898Z,99.99
2018-05-31T04:01:08.877Z,99.99
2018-05-31T04:02:08.855Z,99.99
2018-05-31T04:03:08.830Z,99.99
2018-05-31T04:04:08.813Z,99.99
2018-05-31T04:05:08.805Z,99.99
2018-05-31T04:06:08.802Z,99.99
2018-05-31T04:07:08.800Z,99.99
2018-05-31T04:08:08.770Z,99.99
2018-05-31T04:09:08.769Z,99.99
2018-05-31T04:10:08.769Z,99.99
2018-05-31T04:11:08.741Z,99.99
2018-05-31T04:12:08.733Z,99.99
2018-05-31T04:13:08.824Z,99.99
2018-05-31T04:14:08.710Z,99.99
2018-05-31T04:15:08.717Z,99.99
2018-05-31T04:16:08.694Z,99.99
2018-05-31T04:17:08.681Z,99.99
2018-05-31T04:18:08.660Z,99.99
2018-05-31T04:19:08.665Z,99.99
2018-05-31T04:20:08.647Z,99.99
2018-05-31T04:21:08.648Z,99.99
2018-05-31T04:22:08.618Z,99.99
2018-05-31T04:23:08.618Z,99.99
2018-05-31T04:24:08.592Z,99.99
2018-05-31T04:25:08.608Z,99.99
2018-05-31T04:26:08.571Z,99.99
2018-05-31T04:27:08.560Z,99.99
2018-05-31T04:28:08.562Z,99.99
2018-05-31T04:29:08.543Z,99.99
2018-05-31T04:30:08.527Z,99.99
2018-05-31T04:31:08.541Z,99.99
2018-05-31T04:32:08.511Z,99.99
2018-05-31T04:33:08.502Z,99.99
2018-05-31T04:34:08.499Z,99.99
2018-05-31T04:35:08.475Z,99.99
2018-05-31T04:36:08.477Z,99.99
2018-05-31T04:37:08.459Z,99.99
2018-05-31T04:38:08.441Z,99.99
2018-05-31T04:39:08.430Z,99.99
2018-05-31T04:40:08.440Z,99.99
2018-05-31T04:42:26.170Z,99.99
2018-05-31T04:43:08.424Z,99.99
2018-05-31T04:44:11.465Z,99.99
2018-05-31T04:46:09.160Z,99.99
2018-05-31T04:47:08.431Z,99.99
2018-05-31T04:48:08.357Z,99.99
2018-05-31T04:49:08.367Z,99.99
2018-05-31T04:50:08.315Z,99.99
2018-05-31T04:51:08.316Z,99.99
2018-05-31T04:52:08.296Z,99.99
2018-05-31T04:53:08.303Z,99.99
2018-05-31T04:54:08.286Z,99.99
2018-05-31T04:55:08.267Z,99.99
2018-05-31T04:56:10.574Z,99.99
2018-05-31T04:57:08.250Z,99.99
2018-05-31T04:58:08.280Z,99.99
2018-05-31T04:59:08.219Z,99.99
2018-05-31T05:00:08.207Z,99.99
2018-05-31T05:01:08.209Z,99.99
2018-05-31T05:02:09.192Z,99.99
2018-05-31T05:03:08.197Z,99.99
2018-05-31T05:04:29.175Z,99.99
2018-05-31T05:05:08.157Z,99.99
2018-05-31T05:06:09.404Z,99.55
2018-05-31T05:07:08.137Z,99.99
2018-05-31T05:08:08.122Z,99.99
2018-05-31T05:09:24.582Z,99.99
2018-05-31T05:10:10.646Z,99.99
2018-05-31T05:11:08.097Z,99.99
2018-05-31T05:12:08.082Z,99.99
2018-05-31T05:13:08.076Z,99.99
2018-05-31T05:14:08.073Z,99.99
2018-05-31T05:15:08.086Z,99.84
2018-05-31T05:16:08.065Z,99.99
2018-05-31T05:17:08.035Z,99.99
2018-05-31T05:18:08.049Z,99.99
2018-05-31T05:19:08.019Z,99.99
2018-05-31T05:20:08.038Z,99.99
2018-05-31T05:21:08.030Z,99.55
2018-05-31T05:22:07.990Z,99.64
2018-05-31T05:23:13.189Z,99.26
2018-05-31T05:24:07.993Z,99.35
2018-05-31T05:25:07.955Z,99.45
2018-05-31T05:26:07.981Z,99.55
2018-05-31T05:27:07.944Z,99.93
2018-05-31T05:28:07.927Z,99.64
2018-05-31T05:29:07.920Z,98.87
2018-05-31T05:30:07.904Z,98.49
2018-05-31T05:31:07.906Z,99.02
2018-05-31T05:32:07.883Z,98.63
2018-05-31T05:33:07.917Z,98.25
2018-05-31T05:34:07.857Z,98.15
2018-05-31T05:35:07.874Z,98.44
2018-05-31T05:36:07.855Z,98.44
2018-05-31T05:37:07.832Z,97.67
2018-05-31T05:38:07.838Z,97.19
2018-05-31T05:39:07.810Z,97.67
2018-05-31T05:40:07.804Z,97.96
2018-05-31T05:41:07.812Z,97.09
2018-05-31T05:42:07.783Z,97.67
2018-05-31T05:43:07.777Z,97.47
2018-05-31T05:44:07.777Z,97.19
2018-05-31T05:45:07.780Z,96.99
2018-05-31T05:46:07.762Z,96.37
2018-05-31T05:47:07.736Z,96.46
2018-05-31T05:48:07.740Z,96.32
2018-05-31T05:49:07.710Z,96.46
2018-05-31T05:50:07.747Z,96.85
2018-05-31T05:51:07.703Z,95.98
2018-05-31T05:52:07.697Z,96.46
2018-05-31T05:53:07.692Z,96.27
2018-05-31T05:54:07.663Z,95.79
2018-05-31T05:55:07.657Z,97.47
2018-05-31T05:56:07.669Z,96.89
2018-05-31T05:57:07.650Z,96.70
2018-05-31T05:58:07.622Z,95.74
2018-05-31T05:59:07.618Z,95.31
2018-05-31T06:00:07.604Z,95.84
2018-05-31T06:01:07.593Z,95.11
2018-05-31T06:02:07.611Z,94.92
2018-05-31T06:03:07.571Z,94.92
2018-05-31T06:04:07.583Z,94.15
2018-05-31T06:05:07.558Z,94.63
2018-05-31T06:06:07.555Z,94.63
2018-05-31T06:07:07.549Z,94.68
2018-05-31T06:08:07.541Z,94.96
2018-05-31T06:09:07.521Z,95.36
2018-05-31T06:10:07.576Z,95.74
2018-05-31T06:11:07.493Z,95.36
2018-05-31T06:12:07.500Z,94.96
2018-05-31T06:13:07.500Z,95.93
2018-05-31T06:14:07.487Z,96.08
2018-05-31T06:15:07.452Z,96.03
2018-05-31T06:16:07.461Z,95.50
2018-05-31T06:17:07.458Z,95.74
2018-05-31T06:18:07.429Z,95.11
2018-05-31T06:19:07.425Z,95.36
2018-05-31T06:20:07.413Z,95.36
2018-05-31T06:21:07.395Z,95.36
2018-05-31T06:22:07.392Z,95.01
2018-05-31T06:23:07.391Z,94.96
2018-05-31T06:24:07.370Z,95.84
2018-05-31T06:25:07.358Z,95.84
2018-05-31T06:26:07.387Z,96.32
2018-05-31T06:27:07.342Z,96.51
2018-05-31T06:28:07.361Z,95.16
2018-05-31T06:29:07.342Z,95.64
2018-05-31T06:30:07.306Z,95.84
2018-05-31T06:31:07.301Z,95.74
2018-05-31T06:32:07.292Z,96.22
2018-05-31T06:33:07.279Z,96.32
2018-05-31T06:34:07.284Z,95.88
2018-05-31T06:35:07.256Z,95.26
2018-05-31T06:36:07.261Z,94.58
2018-05-31T06:37:07.288Z,94.20
2018-05-31T06:38:07.253Z,94.05
2018-05-31T06:39:07.707Z,94.58
2018-05-31T06:40:07.232Z,94.05
2018-05-31T06:41:07.204Z,94.34
2018-05-31T06:42:07.185Z,94.15
2018-05-31T06:43:07.176Z,94.63
2018-05-31T06:44:07.165Z,94.43
2018-05-31T06:45:07.179Z,94.92
2018-05-31T06:46:07.144Z,95.35
2018-05-31T06:47:07.138Z,94.10
2018-05-31T06:48:07.146Z,93.04
2018-05-31T06:49:07.119Z,92.74
2018-05-31T06:50:07.119Z,92.94
2018-05-31T06:51:07.117Z,92.74
2018-05-31T06:52:07.088Z,92.65
2018-05-31T06:53:07.084Z,92.65
2018-05-31T06:54:07.069Z,93.62
2018-05-31T06:55:07.060Z,93.71
2018-05-31T06:56:07.047Z,93.71
2018-05-31T06:57:28.168Z,93.80
2018-05-31T06:58:07.029Z,92.65
2018-05-31T06:59:07.022Z,92.65
2018-05-31T07:00:07.018Z,92.74
2018-05-31T07:01:07.016Z,92.65
2018-05-31T07:02:06.996Z,92.84
2018-05-31T07:03:06.980Z,92.74
2018-05-31T07:04:06.982Z,92.84
2018-05-31T07:05:06.962Z,92.84
2018-05-31T07:06:27.968Z,93.04
2018-05-31T07:07:06.943Z,93.13
2018-05-31T07:08:06.933Z,93.62
2018-05-31T07:09:06.927Z,92.84
2018-05-31T07:10:06.951Z,92.36
2018-05-31T07:11:06.903Z,92.26
2018-05-31T07:12:06.891Z,91.59
2018-05-31T07:13:06.891Z,92.36
2018-05-31T07:14:06.877Z,93.62
2018-05-31T07:15:06.882Z,93.23
2018-05-31T07:16:06.872Z,93.80
2018-05-31T07:17:06.856Z,93.04
2018-05-31T07:18:06.841Z,93.23
2018-05-31T07:19:06.829Z,94.20
2018-05-31T07:20:06.824Z,92.84
2018-05-31T07:21:06.822Z,92.36
2018-05-31T07:22:06.801Z,92.65
2018-05-31T07:23:06.792Z,92.07
2018-05-31T07:24:06.799Z,92.26
2018-05-31T07:25:06.771Z,91.88
2018-05-31T07:26:06.773Z,91.68
2018-05-31T07:27:06.760Z,91.88
2018-05-31T07:28:06.758Z,92.55
2018-05-31T07:29:06.790Z,93.62
2018-05-31T07:30:06.729Z,93.42
2018-05-31T07:31:06.712Z,92.94
2018-05-31T07:32:06.707Z,92.89
2018-05-31T07:33:06.693Z,93.42
2018-05-31T07:34:06.696Z,93.23
2018-05-31T07:35:06.677Z,93.23
2018-05-31T07:36:06.686Z,93.04
2018-05-31T07:37:06.652Z,93.04
2018-05-31T07:38:06.649Z,94.10
2018-05-31T07:39:06.649Z,94.77
2018-05-31T07:40:06.627Z,94.29
2018-05-31T07:41:06.653Z,94.48
2018-05-31T07:42:06.621Z,94.96
2018-05-31T07:43:06.598Z,94.10
2018-05-31T07:44:06.595Z,94.34
2018-05-31T07:45:27.601Z,94.34
2018-05-31T07:46:06.572Z,94.14
2018-05-31T07:47:06.560Z,94.14
2018-05-31T07:48:06.553Z,93.47
2018-05-31T07:49:06.548Z,93.47
2018-05-31T07:50:06.547Z,94.04
2018-05-31T07:51:06.520Z,93.08
2018-05-31T07:52:06.523Z,92.02
2018-05-31T07:53:06.500Z,91.09
2018-05-31T07:54:06.498Z,90.42
2018-05-31T07:55:06.503Z,89.94
2018-05-31T07:56:06.470Z,91.67
2018-05-31T07:57:06.470Z,91.09
2018-05-31T07:58:06.497Z,91.77
2018-05-31T07:59:06.459Z,91.97
2018-05-31T08:00:06.471Z,91.29
2018-05-31T08:01:06.433Z,92.16
2018-05-31T08:02:06.447Z,92.74
2018-05-31T08:03:06.414Z,90.61
2018-05-31T08:04:06.403Z,91.58
2018-05-31T08:05:06.396Z,91.19
2018-05-31T08:06:06.385Z,90.71
2018-05-31T08:07:06.433Z,90.47
2018-05-31T08:08:06.369Z,91.43
2018-05-31T08:09:06.370Z,90.47
2018-05-31T08:10:06.350Z,91.14
2018-05-31T08:11:06.354Z,90.66
2018-05-31T08:12:06.341Z,91.05
2018-05-31T08:13:06.344Z,90.66
2018-05-31T08:14:06.320Z,90.37
2018-05-31T08:15:06.302Z,90.47
2018-05-31T08:16:06.308Z,90.37
2018-05-31T08:17:06.293Z,89.98
2018-05-31T08:18:06.291Z,89.79
2018-05-31T08:19:06.287Z,89.93
2018-05-31T08:20:06.265Z,89.50
2018-05-31T08:21:06.255Z,90.03
2018-05-31T08:22:06.242Z,90.41
2018-05-31T08:23:06.249Z,90.75
2018-05-31T08:24:06.237Z,90.27
2018-05-31T08:25:06.217Z,89.31
2018-05-31T08:26:06.209Z,89.65
2018-05-31T08:27:06.216Z,89.65
2018-05-31T08:28:06.203Z,90.23
2018-05-31T08:29:06.181Z,90.33
2018-05-31T08:30:06.178Z,89.75
2018-05-31T08:31:06.167Z,90.61
2018-05-31T08:32:06.156Z,90.91
2018-05-31T08:33:06.143Z,91.35
2018-05-31T08:34:06.150Z,91.05
2018-05-31T08:35:06.131Z,90.81
2018-05-31T08:36:06.118Z,90.61
2018-05-31T08:37:06.113Z,91.05
2018-05-31T08:38:06.119Z,90.42
2018-05-31T08:39:06.109Z,89.75
2018-05-31T08:40:06.082Z,89.26
2018-05-31T08:41:06.076Z,90.61
2018-05-31T08:42:06.063Z,88.39
2018-05-31T08:43:06.069Z,88.29
2018-05-31T08:44:06.080Z,88.68
2018-05-31T08:45:06.059Z,89.40
2018-05-31T08:46:06.044Z,89.11
2018-05-31T08:47:06.019Z,87.08
2018-05-31T08:48:06.019Z,86.89
2018-05-31T08:49:06.014Z,88.05
2018-05-31T08:50:05.996Z,88.15
2018-05-31T08:51:06.014Z,87.61
2018-05-31T08:52:05.978Z,88.19
2018-05-31T08:53:05.965Z,87.66
2018-05-31T08:54:05.955Z,87.18
2018-05-31T08:55:05.969Z,86.45
2018-05-31T08:56:05.937Z,86.45
2018-05-31T08:57:05.937Z,85.97
2018-05-31T08:58:05.933Z,85.93
2018-05-31T08:59:05.914Z,85.44
2018-05-31T09:00:05.920Z,85.25
2018-05-31T09:01:05.923Z,85.87
2018-05-31T09:02:05.889Z,87.47
2018-05-31T09:03:05.879Z,86.69
2018-05-31T09:04:05.867Z,85.73
2018-05-31T09:05:05.858Z,85.05
2018-05-31T09:06:05.863Z,85.93
2018-05-31T09:07:05.861Z,88.34
2018-05-31T09:08:05.838Z,87.66
2018-05-31T09:09:05.832Z,87.57
2018-05-31T09:10:05.819Z,86.69
2018-05-31T09:11:05.805Z,87.61
2018-05-31T09:12:05.818Z,87.66
2018-05-31T09:13:05.786Z,87.66
2018-05-31T09:14:05.784Z,87.76
2018-05-31T09:15:05.809Z,87.66
2018-05-31T09:16:05.759Z,88.43
2018-05-31T09:17:05.772Z,89.01
2018-05-31T09:18:05.759Z,88.92
2018-05-31T09:19:05.735Z,88.48
2018-05-31T09:20:05.727Z,88.96
2018-05-31T09:21:05.715Z,88.19
2018-05-31T09:22:05.727Z,86.99
2018-05-31T09:23:05.720Z,87.95
2018-05-31T09:24:05.710Z,88.92
2018-05-31T09:25:05.688Z,89.79
2018-05-31T09:26:05.684Z,90.17
2018-05-31T09:27:05.665Z,90.08
2018-05-31T09:28:05.667Z,90.66
2018-05-31T09:29:05.654Z,90.37
2018-05-31T09:30:05.655Z,91.14
2018-05-31T09:31:05.632Z,91.82
2018-05-31T09:32:05.621Z,91.43
2018-05-31T09:33:05.626Z,91.05
2018-05-31T09:34:05.606Z,91.53
2018-05-31T09:35:05.638Z,90.33
2018-05-31T09:36:05.591Z,91.09
2018-05-31T09:37:05.584Z,89.94
2018-05-31T09:38:05.570Z,89.94
2018-05-31T09:39:05.558Z,91.14
2018-05-31T09:40:05.557Z,89.59
2018-05-31T09:41:05.589Z,89.89
2018-05-31T09:42:05.541Z,90.08
2018-05-31T09:43:05.521Z,89.89
2018-05-31T09:44:05.511Z,89.21
2018-05-31T09:45:05.512Z,90.08
2018-05-31T09:46:05.510Z,90.37
2018-05-31T09:47:05.485Z,90.56
2018-05-31T09:48:05.481Z,89.40
2018-05-31T09:49:05.472Z,89.84
2018-05-31T09:50:05.467Z,90.23
2018-05-31T09:51:05.468Z,89.55
2018-05-31T09:52:05.441Z,89.75
2018-05-31T09:53:05.450Z,90.13
2018-05-31T09:54:05.426Z,90.52
2018-05-31T09:55:05.418Z,89.65
2018-05-31T09:56:05.407Z,89.55
2018-05-31T09:57:05.431Z,89.75
2018-05-31T09:58:05.397Z,90.23
2018-05-31T09:59:05.381Z,90.42
2018-05-31T10:00:05.374Z,90.91
2018-05-31T10:01:05.362Z,91.00
2018-05-31T10:02:05.348Z,90.42
2018-05-31T10:03:05.368Z,90.61
2018-05-31T10:04:05.331Z,90.81
2018-05-31T10:05:05.329Z,90.81
2018-05-31T10:06:05.316Z,90.23
2018-05-31T10:07:05.308Z,90.13
2018-05-31T10:08:05.316Z,90.03
2018-05-31T10:09:05.289Z,90.23
2018-05-31T10:10:05.276Z,91.29
2018-05-31T10:11:05.264Z,90.91
2018-05-31T10:12:05.259Z,89.65
2018-05-31T10:13:05.251Z,90.13
2018-05-31T10:14:05.261Z,90.81
2018-05-31T10:15:05.231Z,90.81
2018-05-31T10:16:05.221Z,90.52
2018-05-31T10:17:05.244Z,89.69
2018-05-31T10:18:05.222Z,90.47
2018-05-31T10:19:05.213Z,90.37
2018-05-31T10:20:05.181Z,90.17
2018-05-31T10:21:05.188Z,89.31
2018-05-31T10:22:05.172Z,88.34
2018-05-31T10:23:05.162Z,88.24
2018-05-31T10:24:05.147Z,88.53
2018-05-31T10:25:05.161Z,89.40
2018-05-31T10:26:05.129Z,88.53
2018-05-31T10:27:05.124Z,87.85
2018-05-31T10:28:05.113Z,88.29
2018-05-31T10:29:05.102Z,88.39
2018-05-31T10:30:05.113Z,88.96
2018-05-31T10:31:05.080Z,89.45
2018-05-31T10:32:05.077Z,87.37
2018-05-31T10:33:05.066Z,87.85
2018-05-31T10:34:05.060Z,88.34
2018-05-31T10:35:05.060Z,88.53
2018-05-31T10:36:05.041Z,87.85
2018-05-31T10:37:05.031Z,88.24
2018-05-31T10:38:05.026Z,88.92
2018-05-31T10:39:05.015Z,89.50
2018-05-31T10:40:05.004Z,86.89
2018-05-31T10:41:05.010Z,87.81
2018-05-31T10:42:04.985Z,87.90
2018-05-31T10:43:04.978Z,88.48
2018-05-31T10:44:04.964Z,87.85
2018-05-31T10:45:04.975Z,87.07
2018-05-31T10:46:04.973Z,84.84
2018-05-31T10:47:04.937Z,83.98
2018-05-31T10:48:04.932Z,85.42
2018-05-31T10:49:04.928Z,84.60
2018-05-31T10:50:04.932Z,83.05
2018-05-31T10:51:04.929Z,83.63
2018-05-31T10:52:04.899Z,83.73
2018-05-31T10:53:04.899Z,83.05
2018-05-31T10:54:04.883Z,82.76
2018-05-31T10:55:04.869Z,83.18
2018-05-31T10:56:04.864Z,82.22
2018-05-31T10:57:04.875Z,81.54
2018-05-31T10:58:04.847Z,79.64
2018-05-31T10:59:04.839Z,78.61
2018-05-31T11:00:04.848Z,78.00
2018-05-31T11:01:04.824Z,77.70
2018-05-31T11:02:04.836Z,78.42
2018-05-31T11:03:04.811Z,77.92
2018-05-31T11:04:04.817Z,75.34
2018-05-31T11:05:04.795Z,72.07
2018-05-31T11:06:04.785Z,71.72
2018-05-31T11:07:04.789Z,71.33
2018-05-31T11:08:04.791Z,70.97
2018-05-31T11:09:04.778Z,72.58
2018-05-31T11:10:04.754Z,73.80
2018-05-31T11:11:04.754Z,74.93
2018-05-31T11:12:04.774Z,75.55
2018-05-31T11:13:04.738Z,76.23
2018-05-31T11:14:04.733Z,75.16
2018-05-31T11:15:04.728Z,75.84
2018-05-31T11:16:04.727Z,75.74
2018-05-31T11:17:04.728Z,76.95
2018-05-31T11:18:04.724Z,76.05
2018-05-31T11:19:04.705Z,72.39
2018-05-31T11:20:04.699Z,72.30
2018-05-31T11:21:04.705Z,71.46
2018-05-31T11:22:04.688Z,71.23
2018-05-31T11:23:04.719Z,69.22
2018-05-31T11:24:04.683Z,70.49
2018-05-31T11:25:04.674Z,69.03
2018-05-31T11:26:04.672Z,68.25
2018-05-31T11:27:04.667Z,64.65
2018-05-31T11:28:04.652Z,64.69
2018-05-31T11:29:04.663Z,64.95
2018-05-31T11:30:04.649Z,66.05
2018-05-31T11:31:04.637Z,67.57
2018-05-31T11:32:04.640Z,62.58
2018-05-31T11:33:04.650Z,64.95
2018-05-31T11:34:04.620Z,64.43
2018-05-31T11:35:04.628Z,65.01
2018-05-31T11:36:04.616Z,67.11
2018-05-31T11:37:04.612Z,67.47
2018-05-31T11:38:04.599Z,68.25
2018-05-31T11:39:04.596Z,69.41
2018-05-31T11:40:04.605Z,70.57
2018-05-31T11:41:04.593Z,69.28
2018-05-31T11:42:04.576Z,71.51
2018-05-31T11:43:04.579Z,73.55
2018-05-31T11:44:04.594Z,70.54
2018-05-31T11:45:04.582Z,72.00
2018-05-31T11:46:04.558Z,72.97
2018-05-31T11:47:04.555Z,72.16
2018-05-31T11:48:04.553Z,72.45
2018-05-31T11:49:04.537Z,74.87
2018-05-31T11:50:04.565Z,75.55
2018-05-31T11:51:04.531Z,76.19
2018-05-31T11:52:04.529Z,75.90
2018-05-31T11:53:04.515Z,75.96
2018-05-31T11:54:04.505Z,77.03
2018-05-31T11:55:04.511Z,77.70
2018-05-31T11:56:04.512Z,77.42
2018-05-31T11:57:04.491Z,77.12
2018-05-31T11:58:04.484Z,78.00
2018-05-31T11:59:04.476Z,78.15
2018-05-31T12:00:04.481Z,78.05
2018-05-31T12:01:04.479Z,77.96
2018-05-31T12:02:04.475Z,76.89
2018-05-31T12:03:04.518Z,77.09
2018-05-31T12:04:04.452Z,76.12
2018-05-31T12:05:04.433Z,78.54
2018-05-31T12:06:04.433Z,76.99
2018-05-31T12:07:04.438Z,78.74
2018-05-31T12:08:04.460Z,79.74
2018-05-31T12:09:04.400Z,79.25
2018-05-31T12:10:04.393Z,78.19
2018-05-31T12:11:04.386Z,77.51
2018-05-31T12:12:04.408Z,76.74
2018-05-31T12:13:04.379Z,76.74
2018-05-31T12:14:04.393Z,77.51
2018-05-31T12:15:04.367Z,76.06
2018-05-31T12:16:04.348Z,76.83
2018-05-31T12:17:04.343Z,76.29
2018-05-31T12:18:04.354Z,77.11
2018-05-31T12:19:04.335Z,75.55
2018-05-31T12:20:04.324Z,74.23
2018-05-31T12:21:04.341Z,73.84
2018-05-31T12:22:04.313Z,73.46
2018-05-31T12:23:04.344Z,75.04
2018-05-31T12:24:04.303Z,72.23
2018-05-31T12:25:04.290Z,71.36
2018-05-31T12:26:04.277Z,70.61
2018-05-31T12:27:04.267Z,72.36
2018-05-31T12:28:04.259Z,71.97
2018-05-31T12:29:04.282Z,70.51
2018-05-31T12:30:07.753Z,70.65
2018-05-31T12:31:04.267Z,71.13
2018-05-31T12:32:04.239Z,69.38
2018-05-31T12:33:04.251Z,70.20
2018-05-31T12:34:04.247Z,70.68
2018-05-31T12:35:04.249Z,70.00
2018-05-31T12:36:04.249Z,69.22
2018-05-31T12:37:04.220Z,68.74
2018-05-31T12:38:04.213Z,68.15
2018-05-31T12:39:04.238Z,68.41
2018-05-31T12:40:04.565Z,68.32
2018-05-31T12:41:04.204Z,70.06
2018-05-31T12:42:04.186Z,70.61
2018-05-31T12:43:04.172Z,73.24
2018-05-31T12:44:04.176Z,72.03
2018-05-31T12:45:04.177Z,70.29
2018-05-31T12:46:06.799Z,70.00
2018-05-31T12:47:06.849Z,71.84
2018-05-31T12:48:04.156Z,72.03
2018-05-31T12:49:04.871Z,74.37
2018-05-31T12:50:04.181Z,75.24
2018-05-31T12:51:04.142Z,74.07
2018-05-31T12:52:18.818Z,75.78
2018-05-31T12:53:04.813Z,75.68
2018-05-31T12:54:04.119Z,77.53